sensor_id;sensor_type;location;lat;lon;timestamp;P1;durP1;ratioP1;P2;durP2;ratioP2
47429;SDS011;33181;49.246;7.372;2023-04-07T00:01:31;11.00;;;7.80;;
47429;SDS011;33181;49.246;7.372;2023-04-07T00:03:57;12.27;;;8.90;;
47429;SDS011;33181;49.246;7.372;2023-04-07T00:06:23;13.67;;;8.20;;
47429;SDS011;33181;49.246;7.372;2023-04-07T00:08:49;11.93;;;8.00;;
47429;SDS011;33181;49.246;7.372;2023-04-07T00:11:15;9.43;;;8.10;;
47429;SDS011;33181;49.246;7.372;2023-04-07T00:13:41;11.40;;;8.37;;
47429;SDS011;33181;49.246;7.372;2023-04-07T00:16:06;11.70;;;8.90;;
47429;SDS011;33181;49.246;7.372;2023-04-07T00:18:32;13.03;;;8.10;;
47429;SDS011;33181;49.246;7.372;2023-04-07T00:20:58;12.73;;;8.63;;
47429;SDS011;33181;49.246;7.372;2023-04-07T00:23:24;13.30;;;8.30;;
47429;SDS011;33181;49.246;7.372;2023-04-07T00:25:51;11.07;;;7.93;;
47429;SDS011;33181;49.246;7.372;2023-04-07T00:28:16;11.63;;;8.60;;
47429;SDS011;33181;49.246;7.372;2023-04-07T00:30:42;11.00;;;8.13;;
47429;SDS011;33181;49.246;7.372;2023-04-07T00:33:08;10.00;;;7.93;;
47429;SDS011;33181;49.246;7.372;2023-04-07T00:35:34;10.80;;;8.07;;
47429;SDS011;33181;49.246;7.372;2023-04-07T00:37:59;11.03;;;7.70;;
47429;SDS011;33181;49.246;7.372;2023-04-07T00:40:25;10.80;;;7.93;;
47429;SDS011;33181;49.246;7.372;2023-04-07T00:42:51;11.70;;;8.33;;
47429;SDS011;33181;49.246;7.372;2023-04-07T00:45:17;14.20;;;8.60;;
47429;SDS011;33181;49.246;7.372;2023-04-07T00:47:43;12.20;;;8.97;;
47429;SDS011;33181;49.246;7.372;2023-04-07T00:50:09;12.10;;;8.87;;
47429;SDS011;33181;49.246;7.372;2023-04-07T00:52:35;10.73;;;8.10;;
47429;SDS011;33181;49.246;7.372;2023-04-07T00:55:01;12.80;;;9.23;;
47429;SDS011;33181;49.246;7.372;2023-04-07T00:57:30;13.03;;;8.97;;
47429;SDS011;33181;49.246;7.372;2023-04-07T00:59:56;14.37;;;9.30;;
47429;SDS011;33181;49.246;7.372;2023-04-07T01:05:17;11.83;;;8.13;;
47429;SDS011;33181;49.246;7.372;2023-04-07T01:10:43;11.63;;;8.40;;
47429;SDS011;33181;49.246;7.372;2023-04-07T01:16:08;11.80;;;8.63;;
47429;SDS011;33181;49.246;7.372;2023-04-07T01:18:47;12.17;;;9.10;;
47429;SDS011;33181;49.246;7.372;2023-04-07T01:21:18;12.40;;;9.03;;
47429;SDS011;33181;49.246;7.372;2023-04-07T01:26:36;12.87;;;9.73;;
47429;SDS011;33181;49.246;7.372;2023-04-07T01:32:01;15.17;;;9.73;;
47429;SDS011;33181;49.246;7.372;2023-04-07T01:34:30;13.00;;;8.70;;
47429;SDS011;33181;49.246;7.372;2023-04-07T01:36:58;13.37;;;9.33;;
47429;SDS011;33181;49.246;7.372;2023-04-07T01:39:26;11.87;;;9.50;;
47429;SDS011;33181;49.246;7.372;2023-04-07T01:41:53;15.80;;;9.10;;
47429;SDS011;33181;49.246;7.372;2023-04-07T01:44:20;12.70;;;9.30;;
47429;SDS011;33181;49.246;7.372;2023-04-07T01:46:48;13.30;;;10.00;;
47429;SDS011;33181;49.246;7.372;2023-04-07T01:49:17;14.97;;;9.57;;
47429;SDS011;33181;49.246;7.372;2023-04-07T01:51:44;13.80;;;9.03;;
47429;SDS011;33181;49.246;7.372;2023-04-07T01:54:14;11.30;;;8.50;;
47429;SDS011;33181;49.246;7.372;2023-04-07T01:56:42;15.53;;;9.57;;
47429;SDS011;33181;49.246;7.372;2023-04-07T01:59:09;12.57;;;8.70;;
47429;SDS011;33181;49.246;7.372;2023-04-07T02:01:35;12.10;;;8.77;;
47429;SDS011;33181;49.246;7.372;2023-04-07T02:06:50;14.67;;;9.20;;
47429;SDS011;33181;49.246;7.372;2023-04-07T02:09:23;13.83;;;8.90;;
47429;SDS011;33181;49.246;7.372;2023-04-07T02:11:54;13.80;;;10.00;;
47429;SDS011;33181;49.246;7.372;2023-04-07T02:14:22;11.53;;;8.50;;
47429;SDS011;33181;49.246;7.372;2023-04-07T02:16:48;11.67;;;8.20;;
47429;SDS011;33181;49.246;7.372;2023-04-07T02:19:16;13.47;;;8.60;;
47429;SDS011;33181;49.246;7.372;2023-04-07T02:21:43;13.60;;;9.83;;
47429;SDS011;33181;49.246;7.372;2023-04-07T02:24:11;12.73;;;8.60;;
47429;SDS011;33181;49.246;7.372;2023-04-07T02:26:37;14.40;;;9.40;;
47429;SDS011;33181;49.246;7.372;2023-04-07T02:29:03;14.20;;;10.27;;
47429;SDS011;33181;49.246;7.372;2023-04-07T02:31:29;13.13;;;10.33;;
47429;SDS011;33181;49.246;7.372;2023-04-07T02:33:55;12.87;;;9.57;;
47429;SDS011;33181;49.246;7.372;2023-04-07T02:36:21;13.07;;;9.20;;
47429;SDS011;33181;49.246;7.372;2023-04-07T02:38:47;13.97;;;9.30;;
47429;SDS011;33181;49.246;7.372;2023-04-07T02:41:13;16.03;;;10.70;;
47429;SDS011;33181;49.246;7.372;2023-04-07T02:43:39;17.33;;;10.80;;
47429;SDS011;33181;49.246;7.372;2023-04-07T02:46:05;17.03;;;10.60;;
47429;SDS011;33181;49.246;7.372;2023-04-07T02:48:30;15.93;;;10.70;;
47429;SDS011;33181;49.246;7.372;2023-04-07T02:50:57;13.90;;;10.00;;
47429;SDS011;33181;49.246;7.372;2023-04-07T02:53:26;14.20;;;10.60;;
47429;SDS011;33181;49.246;7.372;2023-04-07T02:55:51;13.30;;;9.37;;
47429;SDS011;33181;49.246;7.372;2023-04-07T02:58:18;14.07;;;9.87;;
47429;SDS011;33181;49.246;7.372;2023-04-07T03:00:46;15.60;;;9.87;;
47429;SDS011;33181;49.246;7.372;2023-04-07T03:03:13;13.07;;;9.47;;
47429;SDS011;33181;49.246;7.372;2023-04-07T03:05:39;15.63;;;10.70;;
47429;SDS011;33181;49.246;7.372;2023-04-07T03:08:05;14.67;;;9.70;;
47429;SDS011;33181;49.246;7.372;2023-04-07T03:10:33;16.13;;;10.10;;
47429;SDS011;33181;49.246;7.372;2023-04-07T03:13:00;12.43;;;9.20;;
47429;SDS011;33181;49.246;7.372;2023-04-07T03:15:25;13.53;;;9.60;;
47429;SDS011;33181;49.246;7.372;2023-04-07T03:17:51;13.67;;;8.80;;
47429;SDS011;33181;49.246;7.372;2023-04-07T03:20:17;14.17;;;9.63;;
47429;SDS011;33181;49.246;7.372;2023-04-07T03:22:42;13.23;;;9.50;;
47429;SDS011;33181;49.246;7.372;2023-04-07T03:25:11;13.07;;;9.20;;
47429;SDS011;33181;49.246;7.372;2023-04-07T03:27:37;12.60;;;9.10;;
47429;SDS011;33181;49.246;7.372;2023-04-07T03:30:03;13.03;;;9.50;;
47429;SDS011;33181;49.246;7.372;2023-04-07T03:32:29;14.93;;;9.50;;
47429;SDS011;33181;49.246;7.372;2023-04-07T03:34:55;13.50;;;9.10;;
47429;SDS011;33181;49.246;7.372;2023-04-07T03:37:21;13.23;;;9.93;;
47429;SDS011;33181;49.246;7.372;2023-04-07T03:39:47;15.13;;;9.83;;
47429;SDS011;33181;49.246;7.372;2023-04-07T03:42:12;14.77;;;10.00;;
47429;SDS011;33181;49.246;7.372;2023-04-07T03:44:38;13.63;;;8.70;;
47429;SDS011;33181;49.246;7.372;2023-04-07T03:47:04;12.37;;;9.00;;
47429;SDS011;33181;49.246;7.372;2023-04-07T03:49:30;12.13;;;8.90;;
47429;SDS011;33181;49.246;7.372;2023-04-07T03:51:56;11.83;;;8.53;;
47429;SDS011;33181;49.246;7.372;2023-04-07T03:54:22;13.67;;;9.20;;
47429;SDS011;33181;49.246;7.372;2023-04-07T03:56:48;14.10;;;9.53;;
47429;SDS011;33181;49.246;7.372;2023-04-07T03:59:13;13.93;;;9.40;;
47429;SDS011;33181;49.246;7.372;2023-04-07T04:01:39;14.60;;;10.23;;
47429;SDS011;33181;49.246;7.372;2023-04-07T04:04:05;13.33;;;9.63;;
47429;SDS011;33181;49.246;7.372;2023-04-07T04:06:31;18.53;;;10.03;;
47429;SDS011;33181;49.246;7.372;2023-04-07T04:08:57;15.60;;;10.70;;
47429;SDS011;33181;49.246;7.372;2023-04-07T04:11:23;17.63;;;11.20;;
47429;SDS011;33181;49.246;7.372;2023-04-07T04:13:48;14.03;;;9.90;;
47429;SDS011;33181;49.246;7.372;2023-04-07T04:16:14;14.07;;;9.70;;
47429;SDS011;33181;49.246;7.372;2023-04-07T04:18:40;13.13;;;9.23;;
47429;SDS011;33181;49.246;7.372;2023-04-07T04:21:06;15.33;;;10.73;;
47429;SDS011;33181;49.246;7.372;2023-04-07T04:23:32;19.63;;;11.10;;
47429;SDS011;33181;49.246;7.372;2023-04-07T04:25:58;15.13;;;11.40;;
47429;SDS011;33181;49.246;7.372;2023-04-07T04:28:27;14.80;;;10.27;;
47429;SDS011;33181;49.246;7.372;2023-04-07T04:30:53;14.93;;;10.20;;
47429;SDS011;33181;49.246;7.372;2023-04-07T04:33:19;13.17;;;9.07;;
47429;SDS011;33181;49.246;7.372;2023-04-07T04:35:45;16.90;;;10.20;;
47429;SDS011;33181;49.246;7.372;2023-04-07T04:38:11;16.93;;;9.67;;
47429;SDS011;33181;49.246;7.372;2023-04-07T04:40:37;15.90;;;9.90;;
47429;SDS011;33181;49.246;7.372;2023-04-07T04:43:03;15.87;;;10.00;;
47429;SDS011;33181;49.246;7.372;2023-04-07T04:45:31;14.37;;;9.63;;
47429;SDS011;33181;49.246;7.372;2023-04-07T04:47:57;13.73;;;10.13;;
47429;SDS011;33181;49.246;7.372;2023-04-07T04:50:23;13.53;;;9.90;;
47429;SDS011;33181;49.246;7.372;2023-04-07T04:52:49;12.93;;;9.57;;
47429;SDS011;33181;49.246;7.372;2023-04-07T04:55:14;12.90;;;9.67;;
47429;SDS011;33181;49.246;7.372;2023-04-07T04:57:40;13.80;;;9.80;;
47429;SDS011;33181;49.246;7.372;2023-04-07T05:00:06;16.33;;;9.80;;
47429;SDS011;33181;49.246;7.372;2023-04-07T05:02:33;14.07;;;9.40;;
47429;SDS011;33181;49.246;7.372;2023-04-07T05:05:00;15.23;;;10.80;;
47429;SDS011;33181;49.246;7.372;2023-04-07T05:07:26;19.70;;;12.27;;
47429;SDS011;33181;49.246;7.372;2023-04-07T05:09:52;20.63;;;12.80;;
47429;SDS011;33181;49.246;7.372;2023-04-07T05:12:18;18.67;;;12.63;;
47429;SDS011;33181;49.246;7.372;2023-04-07T05:14:44;16.07;;;11.10;;
47429;SDS011;33181;49.246;7.372;2023-04-07T05:17:10;17.80;;;11.33;;
47429;SDS011;33181;49.246;7.372;2023-04-07T05:19:36;16.27;;;10.90;;
47429;SDS011;33181;49.246;7.372;2023-04-07T05:22:01;15.77;;;10.30;;
47429;SDS011;33181;49.246;7.372;2023-04-07T05:24:27;15.37;;;10.80;;
47429;SDS011;33181;49.246;7.372;2023-04-07T05:26:53;15.17;;;10.40;;
47429;SDS011;33181;49.246;7.372;2023-04-07T05:29:21;16.33;;;10.60;;
47429;SDS011;33181;49.246;7.372;2023-04-07T05:31:47;16.77;;;10.60;;
47429;SDS011;33181;49.246;7.372;2023-04-07T05:34:12;14.30;;;9.70;;
47429;SDS011;33181;49.246;7.372;2023-04-07T05:36:40;15.43;;;10.60;;
47429;SDS011;33181;49.246;7.372;2023-04-07T05:39:07;14.67;;;10.03;;
47429;SDS011;33181;49.246;7.372;2023-04-07T05:41:32;13.00;;;10.33;;
47429;SDS011;33181;49.246;7.372;2023-04-07T05:43:58;11.77;;;8.93;;
47429;SDS011;33181;49.246;7.372;2023-04-07T05:46:24;14.90;;;9.20;;
47429;SDS011;33181;49.246;7.372;2023-04-07T05:48:50;13.60;;;9.37;;
47429;SDS011;33181;49.246;7.372;2023-04-07T05:51:15;16.23;;;10.80;;
47429;SDS011;33181;49.246;7.372;2023-04-07T05:53:41;14.07;;;9.70;;
47429;SDS011;33181;49.246;7.372;2023-04-07T05:56:07;13.20;;;9.73;;
47429;SDS011;33181;49.246;7.372;2023-04-07T05:58:33;12.10;;;9.03;;
47429;SDS011;33181;49.246;7.372;2023-04-07T06:00:58;11.30;;;8.73;;
47429;SDS011;33181;49.246;7.372;2023-04-07T06:03:24;10.60;;;8.63;;
47429;SDS011;33181;49.246;7.372;2023-04-07T06:05:50;11.27;;;8.87;;
47429;SDS011;33181;49.246;7.372;2023-04-07T06:08:16;11.30;;;8.47;;
47429;SDS011;33181;49.246;7.372;2023-04-07T06:10:42;11.77;;;9.10;;
47429;SDS011;33181;49.246;7.372;2023-04-07T06:13:08;11.53;;;9.80;;
47429;SDS011;33181;49.246;7.372;2023-04-07T06:15:33;13.10;;;10.10;;
47429;SDS011;33181;49.246;7.372;2023-04-07T06:17:59;11.80;;;9.70;;
47429;SDS011;33181;49.246;7.372;2023-04-07T06:20:25;11.00;;;9.40;;
47429;SDS011;33181;49.246;7.372;2023-04-07T06:22:52;12.23;;;9.37;;
47429;SDS011;33181;49.246;7.372;2023-04-07T06:25:19;17.33;;;9.93;;
47429;SDS011;33181;49.246;7.372;2023-04-07T06:27:45;10.70;;;8.67;;
47429;SDS011;33181;49.246;7.372;2023-04-07T06:30:11;11.63;;;8.43;;
47429;SDS011;33181;49.246;7.372;2023-04-07T06:32:37;16.50;;;11.67;;
47429;SDS011;33181;49.246;7.372;2023-04-07T06:35:03;16.77;;;11.60;;
47429;SDS011;33181;49.246;7.372;2023-04-07T06:37:29;11.57;;;8.90;;
47429;SDS011;33181;49.246;7.372;2023-04-07T06:39:55;11.07;;;8.63;;
47429;SDS011;33181;49.246;7.372;2023-04-07T06:42:21;11.50;;;7.70;;
47429;SDS011;33181;49.246;7.372;2023-04-07T06:44:46;11.80;;;8.07;;
47429;SDS011;33181;49.246;7.372;2023-04-07T06:47:12;10.10;;;8.00;;
47429;SDS011;33181;49.246;7.372;2023-04-07T06:49:38;14.20;;;8.87;;
47429;SDS011;33181;49.246;7.372;2023-04-07T06:52:04;12.83;;;8.07;;
47429;SDS011;33181;49.246;7.372;2023-04-07T06:54:30;10.37;;;7.67;;
47429;SDS011;33181;49.246;7.372;2023-04-07T06:56:56;13.03;;;8.40;;
47429;SDS011;33181;49.246;7.372;2023-04-07T06:59:21;10.20;;;8.40;;
47429;SDS011;33181;49.246;7.372;2023-04-07T07:01:47;10.37;;;7.70;;
47429;SDS011;33181;49.246;7.372;2023-04-07T07:04:13;9.37;;;7.33;;
47429;SDS011;33181;49.246;7.372;2023-04-07T07:06:39;11.83;;;8.13;;
47429;SDS011;33181;49.246;7.372;2023-04-07T07:09:05;11.80;;;8.40;;
47429;SDS011;33181;49.246;7.372;2023-04-07T07:11:31;12.40;;;8.93;;
47429;SDS011;33181;49.246;7.372;2023-04-07T07:13:56;11.70;;;9.10;;
47429;SDS011;33181;49.246;7.372;2023-04-07T07:16:22;11.33;;;8.33;;
47429;SDS011;33181;49.246;7.372;2023-04-07T07:18:48;10.70;;;7.57;;
47429;SDS011;33181;49.246;7.372;2023-04-07T07:21:16;9.93;;;7.30;;
47429;SDS011;33181;49.246;7.372;2023-04-07T07:23:42;13.27;;;9.17;;
47429;SDS011;33181;49.246;7.372;2023-04-07T07:26:08;13.87;;;8.87;;
47429;SDS011;33181;49.246;7.372;2023-04-07T07:28:34;12.93;;;9.20;;
47429;SDS011;33181;49.246;7.372;2023-04-07T07:31:00;11.80;;;8.70;;
47429;SDS011;33181;49.246;7.372;2023-04-07T07:33:37;14.10;;;8.87;;
47429;SDS011;33181;49.246;7.372;2023-04-07T07:36:05;12.80;;;8.80;;
47429;SDS011;33181;49.246;7.372;2023-04-07T07:38:34;13.40;;;9.10;;
47429;SDS011;33181;49.246;7.372;2023-04-07T07:41:00;11.17;;;8.40;;
47429;SDS011;33181;49.246;7.372;2023-04-07T07:43:27;11.27;;;8.50;;
47429;SDS011;33181;49.246;7.372;2023-04-07T07:45:53;10.87;;;8.60;;
47429;SDS011;33181;49.246;7.372;2023-04-07T07:48:18;11.00;;;8.20;;
47429;SDS011;33181;49.246;7.372;2023-04-07T07:50:44;10.70;;;8.30;;
47429;SDS011;33181;49.246;7.372;2023-04-07T07:53:11;11.53;;;9.47;;
47429;SDS011;33181;49.246;7.372;2023-04-07T07:55:36;13.53;;;9.73;;
47429;SDS011;33181;49.246;7.372;2023-04-07T07:58:02;13.73;;;9.63;;
47429;SDS011;33181;49.246;7.372;2023-04-07T08:00:28;14.93;;;10.43;;
47429;SDS011;33181;49.246;7.372;2023-04-07T08:02:54;20.97;;;11.30;;
47429;SDS011;33181;49.246;7.372;2023-04-07T08:05:20;15.80;;;11.30;;
47429;SDS011;33181;49.246;7.372;2023-04-07T08:07:46;16.50;;;11.73;;
47429;SDS011;33181;49.246;7.372;2023-04-07T08:10:14;19.90;;;13.20;;
47429;SDS011;33181;49.246;7.372;2023-04-07T08:12:40;19.63;;;12.60;;
47429;SDS011;33181;49.246;7.372;2023-04-07T08:15:06;22.70;;;12.57;;
47429;SDS011;33181;49.246;7.372;2023-04-07T08:17:34;22.13;;;12.70;;
47429;SDS011;33181;49.246;7.372;2023-04-07T08:20:00;19.67;;;12.40;;
47429;SDS011;33181;49.246;7.372;2023-04-07T08:22:27;19.33;;;11.40;;
47429;SDS011;33181;49.246;7.372;2023-04-07T08:24:53;15.27;;;10.67;;
47429;SDS011;33181;49.246;7.372;2023-04-07T08:27:19;18.17;;;11.23;;
47429;SDS011;33181;49.246;7.372;2023-04-07T08:29:45;20.20;;;11.80;;
47429;SDS011;33181;49.246;7.372;2023-04-07T08:32:34;20.70;;;11.23;;
47429;SDS011;33181;49.246;7.372;2023-04-07T08:35:00;16.13;;;11.10;;
47429;SDS011;33181;49.246;7.372;2023-04-07T08:37:26;15.80;;;10.47;;
47429;SDS011;33181;49.246;7.372;2023-04-07T08:39:52;16.33;;;10.73;;
47429;SDS011;33181;49.246;7.372;2023-04-07T08:42:18;17.20;;;10.07;;
47429;SDS011;33181;49.246;7.372;2023-04-07T08:44:46;15.27;;;10.50;;
47429;SDS011;33181;49.246;7.372;2023-04-07T08:47:15;14.20;;;9.53;;
47429;SDS011;33181;49.246;7.372;2023-04-07T08:49:43;19.00;;;10.37;;
47429;SDS011;33181;49.246;7.372;2023-04-07T08:52:11;16.67;;;10.33;;
47429;SDS011;33181;49.246;7.372;2023-04-07T08:54:40;16.33;;;9.73;;
47429;SDS011;33181;49.246;7.372;2023-04-07T08:57:07;16.50;;;9.27;;
47429;SDS011;33181;49.246;7.372;2023-04-07T08:59:34;17.47;;;9.70;;
47429;SDS011;33181;49.246;7.372;2023-04-07T09:02:00;15.30;;;9.80;;
47429;SDS011;33181;49.246;7.372;2023-04-07T09:04:29;18.27;;;9.73;;
47429;SDS011;33181;49.246;7.372;2023-04-07T09:06:55;12.77;;;8.80;;
47429;SDS011;33181;49.246;7.372;2023-04-07T09:09:21;13.80;;;8.97;;
47429;SDS011;33181;49.246;7.372;2023-04-07T09:11:48;16.73;;;7.97;;
47429;SDS011;33181;49.246;7.372;2023-04-07T09:14:15;13.60;;;8.10;;
47429;SDS011;33181;49.246;7.372;2023-04-07T09:16:42;12.77;;;7.93;;
47429;SDS011;33181;49.246;7.372;2023-04-07T09:19:08;11.50;;;7.60;;
47429;SDS011;33181;49.246;7.372;2023-04-07T09:21:50;14.30;;;7.80;;
47429;SDS011;33181;49.246;7.372;2023-04-07T09:24:27;12.70;;;7.70;;
47429;SDS011;33181;49.246;7.372;2023-04-07T09:29:40;11.27;;;7.70;;
47429;SDS011;33181;49.246;7.372;2023-04-07T09:32:08;13.30;;;7.47;;
47429;SDS011;33181;49.246;7.372;2023-04-07T09:34:37;10.30;;;7.17;;
47429;SDS011;33181;49.246;7.372;2023-04-07T09:37:05;11.90;;;7.70;;
47429;SDS011;33181;49.246;7.372;2023-04-07T09:39:33;10.27;;;7.03;;
47429;SDS011;33181;49.246;7.372;2023-04-07T09:42:18;10.00;;;6.83;;
47429;SDS011;33181;49.246;7.372;2023-04-07T09:44:45;9.00;;;6.60;;
47429;SDS011;33181;49.246;7.372;2023-04-07T09:47:11;10.80;;;7.17;;
47429;SDS011;33181;49.246;7.372;2023-04-07T09:49:50;11.83;;;6.80;;
47429;SDS011;33181;49.246;7.372;2023-04-07T09:52:18;13.30;;;7.43;;
47429;SDS011;33181;49.246;7.372;2023-04-07T09:54:49;9.70;;;6.77;;
47429;SDS011;33181;49.246;7.372;2023-04-07T09:57:16;10.10;;;6.43;;
47429;SDS011;33181;49.246;7.372;2023-04-07T09:59:43;9.13;;;6.30;;
47429;SDS011;33181;49.246;7.372;2023-04-07T10:02:09;9.70;;;6.40;;
47429;SDS011;33181;49.246;7.372;2023-04-07T10:04:36;10.97;;;6.83;;
47429;SDS011;33181;49.246;7.372;2023-04-07T10:07:05;10.90;;;6.53;;
47429;SDS011;33181;49.246;7.372;2023-04-07T10:09:31;9.20;;;7.13;;
47429;SDS011;33181;49.246;7.372;2023-04-07T10:11:57;9.70;;;6.50;;
47429;SDS011;33181;49.246;7.372;2023-04-07T10:14:27;12.07;;;7.00;;
47429;SDS011;33181;49.246;7.372;2023-04-07T10:16:56;10.77;;;6.30;;
47429;SDS011;33181;49.246;7.372;2023-04-07T10:19:31;8.67;;;5.60;;
47429;SDS011;33181;49.246;7.372;2023-04-07T10:21:58;11.13;;;5.40;;
47429;SDS011;33181;49.246;7.372;2023-04-07T10:27:14;8.43;;;5.50;;
47429;SDS011;33181;49.246;7.372;2023-04-07T10:29:45;10.10;;;6.00;;
47429;SDS011;33181;49.246;7.372;2023-04-07T10:32:15;10.83;;;5.80;;
47429;SDS011;33181;49.246;7.372;2023-04-07T10:37:17;8.00;;;5.37;;
47429;SDS011;33181;49.246;7.372;2023-04-07T10:39:48;7.40;;;5.73;;
47429;SDS011;33181;49.246;7.372;2023-04-07T10:48:11;7.10;;;5.43;;
47429;SDS011;33181;49.246;7.372;2023-04-07T10:50:38;5.87;;;4.40;;
47429;SDS011;33181;49.246;7.372;2023-04-07T10:53:07;5.27;;;3.40;;
47429;SDS011;33181;49.246;7.372;2023-04-07T10:55:46;5.13;;;3.10;;
47429;SDS011;33181;49.246;7.372;2023-04-07T10:58:23;5.03;;;3.77;;
47429;SDS011;33181;49.246;7.372;2023-04-07T11:03:43;8.87;;;4.50;;
47429;SDS011;33181;49.246;7.372;2023-04-07T11:06:22;6.30;;;4.50;;
47429;SDS011;33181;49.246;7.372;2023-04-07T11:08:48;11.77;;;5.63;;
47429;SDS011;33181;49.246;7.372;2023-04-07T11:11:15;9.63;;;5.20;;
47429;SDS011;33181;49.246;7.372;2023-04-07T11:14:02;5.17;;;4.00;;
47429;SDS011;33181;49.246;7.372;2023-04-07T11:16:35;5.77;;;4.07;;
47429;SDS011;33181;49.246;7.372;2023-04-07T11:19:07;7.60;;;5.00;;
47429;SDS011;33181;49.246;7.372;2023-04-07T11:21:33;6.33;;;4.97;;
47429;SDS011;33181;49.246;7.372;2023-04-07T11:24:00;6.47;;;4.50;;
47429;SDS011;33181;49.246;7.372;2023-04-07T11:26:26;7.57;;;5.10;;
47429;SDS011;33181;49.246;7.372;2023-04-07T11:28:53;5.93;;;4.60;;
47429;SDS011;33181;49.246;7.372;2023-04-07T11:31:23;5.03;;;3.87;;
47429;SDS011;33181;49.246;7.372;2023-04-07T11:33:52;5.00;;;3.67;;
47429;SDS011;33181;49.246;7.372;2023-04-07T11:36:30;6.00;;;3.80;;
47429;SDS011;33181;49.246;7.372;2023-04-07T11:39:04;5.97;;;3.83;;
47429;SDS011;33181;49.246;7.372;2023-04-07T11:41:30;7.63;;;4.50;;
47429;SDS011;33181;49.246;7.372;2023-04-07T11:44:07;5.93;;;4.23;;
47429;SDS011;33181;49.246;7.372;2023-04-07T11:46:35;6.50;;;4.27;;
47429;SDS011;33181;49.246;7.372;2023-04-07T11:49:20;7.67;;;4.60;;
47429;SDS011;33181;49.246;7.372;2023-04-07T11:51:59;5.67;;;4.10;;
47429;SDS011;33181;49.246;7.372;2023-04-07T11:54:27;6.70;;;5.13;;
47429;SDS011;33181;49.246;7.372;2023-04-07T11:57:25;8.83;;;5.80;;
47429;SDS011;33181;49.246;7.372;2023-04-07T12:00:05;8.37;;;5.93;;
47429;SDS011;33181;49.246;7.372;2023-04-07T12:02:36;10.20;;;6.20;;
47429;SDS011;33181;49.246;7.372;2023-04-07T12:05:02;8.20;;;6.03;;
47429;SDS011;33181;49.246;7.372;2023-04-07T12:07:34;12.17;;;5.80;;
47429;SDS011;33181;49.246;7.372;2023-04-07T12:10:17;8.73;;;6.27;;
47429;SDS011;33181;49.246;7.372;2023-04-07T12:12:44;6.43;;;5.03;;
47429;SDS011;33181;49.246;7.372;2023-04-07T12:15:11;8.80;;;5.90;;
47429;SDS011;33181;49.246;7.372;2023-04-07T12:17:37;8.80;;;5.90;;
47429;SDS011;33181;49.246;7.372;2023-04-07T12:20:09;10.27;;;6.20;;
47429;SDS011;33181;49.246;7.372;2023-04-07T12:22:36;7.40;;;5.70;;
47429;SDS011;33181;49.246;7.372;2023-04-07T12:25:02;8.47;;;5.80;;
47429;SDS011;33181;49.246;7.372;2023-04-07T12:27:27;7.33;;;5.27;;
47429;SDS011;33181;49.246;7.372;2023-04-07T12:29:53;7.20;;;5.37;;
47429;SDS011;33181;49.246;7.372;2023-04-07T12:32:19;12.93;;;6.57;;
47429;SDS011;33181;49.246;7.372;2023-04-07T12:34:45;9.43;;;6.47;;
47429;SDS011;33181;49.246;7.372;2023-04-07T12:37:11;9.80;;;6.60;;
47429;SDS011;33181;49.246;7.372;2023-04-07T12:39:37;9.37;;;6.10;;
47429;SDS011;33181;49.246;7.372;2023-04-07T12:42:03;9.13;;;6.53;;
47429;SDS011;33181;49.246;7.372;2023-04-07T12:44:33;11.47;;;6.90;;
47429;SDS011;33181;49.246;7.372;2023-04-07T12:46:59;12.43;;;7.50;;
47429;SDS011;33181;49.246;7.372;2023-04-07T12:49:25;10.83;;;7.30;;
47429;SDS011;33181;49.246;7.372;2023-04-07T12:51:51;9.70;;;6.47;;
47429;SDS011;33181;49.246;7.372;2023-04-07T12:54:16;11.23;;;6.73;;
47429;SDS011;33181;49.246;7.372;2023-04-07T12:56:42;9.10;;;6.20;;
47429;SDS011;33181;49.246;7.372;2023-04-07T12:59:11;8.70;;;6.50;;
47429;SDS011;33181;49.246;7.372;2023-04-07T13:01:38;10.87;;;6.80;;
47429;SDS011;33181;49.246;7.372;2023-04-07T13:04:04;10.70;;;7.00;;
47429;SDS011;33181;49.246;7.372;2023-04-07T13:06:30;10.97;;;7.20;;
47429;SDS011;33181;49.246;7.372;2023-04-07T13:08:56;11.00;;;7.10;;
47429;SDS011;33181;49.246;7.372;2023-04-07T13:11:22;10.20;;;6.60;;
47429;SDS011;33181;49.246;7.372;2023-04-07T13:13:48;11.10;;;6.57;;
47429;SDS011;33181;49.246;7.372;2023-04-07T13:16:14;9.20;;;5.80;;
47429;SDS011;33181;49.246;7.372;2023-04-07T13:18:40;8.50;;;6.33;;
47429;SDS011;33181;49.246;7.372;2023-04-07T13:21:06;9.50;;;5.57;;
47429;SDS011;33181;49.246;7.372;2023-04-07T13:23:32;7.23;;;5.23;;
47429;SDS011;33181;49.246;7.372;2023-04-07T13:25:58;8.40;;;5.60;;
47429;SDS011;33181;49.246;7.372;2023-04-07T13:28:23;8.97;;;6.37;;
47429;SDS011;33181;49.246;7.372;2023-04-07T13:30:49;7.77;;;5.47;;
47429;SDS011;33181;49.246;7.372;2023-04-07T13:33:15;9.13;;;5.90;;
47429;SDS011;33181;49.246;7.372;2023-04-07T13:35:41;9.20;;;6.30;;
47429;SDS011;33181;49.246;7.372;2023-04-07T13:38:07;5.67;;;4.40;;
47429;SDS011;33181;49.246;7.372;2023-04-07T13:40:33;5.70;;;3.87;;
47429;SDS011;33181;49.246;7.372;2023-04-07T13:43:01;5.60;;;3.40;;
47429;SDS011;33181;49.246;7.372;2023-04-07T13:45:27;6.97;;;4.40;;
47429;SDS011;33181;49.246;7.372;2023-04-07T13:47:52;8.57;;;4.40;;
47429;SDS011;33181;49.246;7.372;2023-04-07T13:50:19;6.13;;;4.40;;
47429;SDS011;33181;49.246;7.372;2023-04-07T13:52:45;5.97;;;4.60;;
47429;SDS011;33181;49.246;7.372;2023-04-07T13:55:10;7.10;;;5.10;;
47429;SDS011;33181;49.246;7.372;2023-04-07T13:57:36;6.57;;;4.40;;
47429;SDS011;33181;49.246;7.372;2023-04-07T14:00:02;5.50;;;4.00;;
47429;SDS011;33181;49.246;7.372;2023-04-07T14:02:29;6.90;;;4.37;;
47429;SDS011;33181;49.246;7.372;2023-04-07T14:04:56;6.60;;;4.77;;
47429;SDS011;33181;49.246;7.372;2023-04-07T14:07:22;7.33;;;5.37;;
47429;SDS011;33181;49.246;7.372;2023-04-07T14:09:48;7.53;;;4.53;;
47429;SDS011;33181;49.246;7.372;2023-04-07T14:12:14;9.30;;;5.70;;
47429;SDS011;33181;49.246;7.372;2023-04-07T14:14:40;8.10;;;5.43;;
47429;SDS011;33181;49.246;7.372;2023-04-07T14:17:06;8.67;;;5.40;;
47429;SDS011;33181;49.246;7.372;2023-04-07T14:19:32;9.50;;;5.30;;
47429;SDS011;33181;49.246;7.372;2023-04-07T14:21:58;8.13;;;5.10;;
47429;SDS011;33181;49.246;7.372;2023-04-07T14:24:24;7.13;;;4.93;;
47429;SDS011;33181;49.246;7.372;2023-04-07T14:26:50;7.83;;;5.53;;
47429;SDS011;33181;49.246;7.372;2023-04-07T14:29:18;5.97;;;4.83;;
47429;SDS011;33181;49.246;7.372;2023-04-07T14:31:44;5.70;;;4.77;;
47429;SDS011;33181;49.246;7.372;2023-04-07T14:34:12;9.53;;;4.60;;
47429;SDS011;33181;49.246;7.372;2023-04-07T14:36:38;7.83;;;5.10;;
47429;SDS011;33181;49.246;7.372;2023-04-07T14:39:04;9.10;;;5.23;;
47429;SDS011;33181;49.246;7.372;2023-04-07T14:41:31;5.37;;;4.40;;
47429;SDS011;33181;49.246;7.372;2023-04-07T14:43:56;6.90;;;5.07;;
47429;SDS011;33181;49.246;7.372;2023-04-07T14:46:22;6.90;;;5.17;;
47429;SDS011;33181;49.246;7.372;2023-04-07T14:48:51;7.50;;;5.47;;
47429;SDS011;33181;49.246;7.372;2023-04-07T14:51:17;5.80;;;4.70;;
47429;SDS011;33181;49.246;7.372;2023-04-07T14:53:43;7.83;;;4.83;;
47429;SDS011;33181;49.246;7.372;2023-04-07T14:56:10;5.37;;;4.50;;
47429;SDS011;33181;49.246;7.372;2023-04-07T14:58:36;6.53;;;4.70;;
47429;SDS011;33181;49.246;7.372;2023-04-07T15:01:04;5.57;;;3.60;;
47429;SDS011;33181;49.246;7.372;2023-04-07T15:03:30;3.67;;;2.80;;
47429;SDS011;33181;49.246;7.372;2023-04-07T15:05:57;3.00;;;2.67;;
47429;SDS011;33181;49.246;7.372;2023-04-07T15:08:23;3.53;;;2.63;;
47429;SDS011;33181;49.246;7.372;2023-04-07T15:10:49;5.50;;;2.57;;